Time;durP1;ratioP1;P1;durP2;ratioP2;P2;SDS_P1;SDS_P2;PMS_P1;PMS_P2;Temp;Humidity;BMP_temperature;BMP_pressure;BME280_temperature;BME280_humidity;BME280_pressure;Samples;Min_cycle;Max_cycle;Signal;HPM_P1;HPM_P2
2023/01/01 00:07:15;;;;;;;;;;;;;;;11.12;78.74;98349.59;5459179;24;19983;-64
2023/01/01 00:12:24;;;;;;;;;;;;;;;11.16;77.79;98351.88;4872801;29;19934;-65
2023/01/01 00:14:49;;;;;;;;;;;;;;;11.21;78.28;98353.34;4859599;29;20018;-66
2023/01/01 00:17:14;;;;;;;;;;;;;;;11.23;78.07;98360.19;4860211;29;19958;-65
2023/01/01 00:19:39;;;;;;;;;;;;;;;11.28;77.67;98357.22;4859903;29;19951;-65
2023/01/01 00:22:05;;;;;;;;;;;;;;;11.34;77.37;98351.56;4854088;29;19959;-65
2023/01/01 00:24:30;;;;;;;;;;;;;;;11.41;76.77;98352.81;4839332;29;19924;-65
2023/01/01 00:26:55;;;;;;;;;;;;;;;11.46;75.94;98358.59;4858388;29;19987;-65
2023/01/01 00:29:20;;;;;;;;;;;;;;;11.63;82.60;98354.75;4858084;29;19916;-65
2023/01/01 00:31:46;;;;;;;;;;;;;;;11.60;76.97;98352.38;4837059;29;19920;-67
2023/01/01 00:34:11;;;;;;;;;;;;;;;11.57;76.29;98347.34;4850029;29;19927;-68
2023/01/01 00:36:36;;;;;;;;;;;;;;;11.53;76.19;98351.13;4854289;29;20344;-65
2023/01/01 00:39:02;;;;;;;;;;;;;;;11.48;76.10;98347.97;4858363;29;20003;-65
2023/01/01 00:41:27;;;;;;;;;;;;;;;11.41;75.79;98358.91;4835111;29;19920;-67
2023/01/01 13:38:59;;;;;;;;;;;;;;;15.77;58.59;98515.19;5508250;23;20026;-63
2023/01/01 13:41:24;;;;;;;;;;;;;;;15.76;58.99;98519.63;4842015;29;20014;-64
2023/01/01 13:43:49;;;;;;;;;;;;;;;15.73;59.43;98522.53;4880846;29;20006;-66
2023/01/01 13:46:14;;;;;;;;;;;;;;;15.73;59.61;98524.34;4855958;29;19923;-65
2023/01/01 13:48:49;;;;;;;;;;;;;;;15.73;59.82;98522.53;4858857;29;20376;-64
2023/01/01 13:51:21;;;;;;;;;;;;;;;15.73;59.40;98527.00;4842807;29;19920;-65
2023/01/01 13:53:52;;;;;;;;;;;;;;;15.71;59.33;98515.69;4834680;29;19981;-64
2023/01/01 13:56:33;;;;;;;;;;;;;;;15.68;59.67;98522.06;4861226;29;19928;-64
2023/01/01 13:59:16;;;;;;;;;;;;;;;15.65;60.07;98524.94;4868574;29;19940;-65
2023/01/01 14:01:43;;;;;;;;;;;;;;;15.65;60.40;98527.59;4859006;29;20015;-64
2023/01/01 14:04:14;;;;;;;;;;;;;;;15.64;60.08;98525.91;4827034;29;19944;-65
2023/01/01 14:06:40;;;;;;;;;;;;;;;15.68;59.87;98522.06;4827241;29;19920;-64
2023/01/01 14:09:09;;;;;;;;;;;;;;;15.71;59.68;98527.09;4842042;29;19920;-63
2023/01/01 14:11:34;;;;;;;;;;;;;;;15.72;59.93;98523.47;4837565;29;19992;-63
2023/01/01 14:13:59;;;;;;;;;;;;;;;15.75;59.80;98520.59;4843440;29;20651;-65
2023/01/01 14:16:24;;;;;;;;;;;;;;;15.78;59.87;98517.69;4843633;29;20345;-67
2023/01/01 14:18:59;;;;;;;;;;;;;;;15.81;59.57;98524.53;4835222;29;21182;-64
2023/01/01 14:21:24;;;;;;;;;;;;;;;15.77;59.52;98516.00;4846295;29;19920;-64
2023/01/01 14:24:02;;;;;;;;;;;;;;;15.73;59.47;98519.91;4837212;29;20376;-64
2023/01/01 14:26:28;;;;;;;;;;;;;;;15.68;59.93;98521.25;4830328;29;20403;-64
2023/01/01 14:28:56;;;;;;;;;;;;;;;15.67;59.76;98523.06;4846350;29;19920;-67
2023/01/01 14:31:23;;;;;;;;;;;;;;;15.64;59.94;98516.19;4854821;29;19983;-65
2023/01/01 14:33:48;;;;;;;;;;;;;;;15.59;60.33;98521.03;4843349;29;19999;-65
2023/01/01 14:36:21;;;;;;;;;;;;;;;15.55;60.28;98526.69;4839034;29;20014;-65
2023/01/01 14:38:47;;;;;;;;;;;;;;;15.48;60.77;98525.53;4851725;29;19920;-65
2023/01/01 14:41:31;;;;;;;;;;;;;;;15.40;60.86;98524.34;4840351;29;19920;-66
2023/01/01 14:43:56;;;;;;;;;;;;;;;15.31;60.93;98525.16;4861009;29;20261;-65
2023/01/01 14:46:23;;;;;;;;;;;;;;;15.23;61.62;98529.38;4844865;29;19937;-64
2023/01/01 14:48:49;;;;;;;;;;;;;;;15.14;61.88;98528.31;4840242;29;19928;-64
2023/01/01 14:51:14;;;;;;;;;;;;;;;15.03;62.25;98533.63;4820950;29;19920;-65
2023/01/01 14:53:39;;;;;;;;;;;;;;;14.92;62.17;98523.94;4842086;29;20380;-65
2023/01/01 14:56:06;;;;;;;;;;;;;;;14.82;62.45;98526.50;4861139;29;19939;-64
2023/01/01 14:58:32;;;;;;;;;;;;;;;14.72;62.73;98522.91;4842352;29;19920;-67
2023/01/01 15:01:13;;;;;;;;;;;;;;;14.61;63.05;98521.16;4843196;29;20004;-63
2023/01/01 15:03:39;;;;;;;;;;;;;;;14.50;63.27;98523.81;4840167;29;19955;-65
2023/01/01 15:06:06;;;;;;;;;;;;;;;14.39;63.73;98529.91;4854381;29;19978;-62
2023/01/01 15:08:31;;;;;;;;;;;;;;;14.31;63.86;98529.66;4860997;29;19916;-64
2023/01/01 15:10:56;;;;;;;;;;;;;;;14.22;63.92;98535.69;4861011;29;19928;-63
2023/01/01 15:13:25;;;;;;;;;;;;;;;14.13;64.26;98541.66;4851486;29;19926;-63
2023/01/01 15:15:54;;;;;;;;;;;;;;;14.06;64.33;98535.19;4841894;29;19916;-64
2023/01/01 15:18:35;;;;;;;;;;;;;;;13.98;64.64;98536.63;4818590;29;20127;-61
2023/01/01 15:21:04;;;;;;;;;;;;;;;13.88;64.66;98538.28;4859332;29;19920;-62
2023/01/01 15:23:29;;;;;;;;;;;;;;;13.81;64.57;98538.88;4854393;29;20409;-63
2023/01/01 15:25:55;;;;;;;;;;;;;;;13.73;64.77;98536.84;4863475;29;20041;-64
2023/01/01 15:28:20;;;;;;;;;;;;;;;13.65;64.92;98541.81;4836872;29;20060;-66
2023/01/01 15:30:50;;;;;;;;;;;;;;;13.56;65.02;98540.75;4834895;29;19916;-64
2023/01/01 15:33:16;;;;;;;;;;;;;;;13.47;65.42;98537.00;4846791;29;19991;-64
2023/01/01 15:35:44;;;;;;;;;;;;;;;13.39;66.18;98541.16;4861093;29;19960;-64
2023/01/01 15:38:10;;;;;;;;;;;;;;;13.31;66.00;98528.53;4810453;29;19925;-64
2023/01/01 15:40:36;;;;;;;;;;;;;;;13.24;65.96;98532.59;4842180;29;20297;-64
2023/01/01 15:43:01;;;;;;;;;;;;;;;13.17;66.41;98536.59;4828773;29;19924;-64
2023/01/01 15:45:36;;;;;;;;;;;;;;;13.10;66.37;98530.13;4864002;29;20296;-64
2023/01/01 15:48:04;;;;;;;;;;;;;;;13.00;66.69;98533.41;4844023;29;19916;-65
2023/01/01 15:50:37;;;;;;;;;;;;;;;12.94;67.04;98535.66;4860371;29;20376;-63
2023/01/01 15:53:10;;;;;;;;;;;;;;;12.85;67.11;98529.28;4843943;29;19920;-63
2023/01/01 15:55:35;;;;;;;;;;;;;;;12.77;67.47;98524.56;4849168;29;19920;-63
2023/01/01 15:58:01;;;;;;;;;;;;;;;12.72;67.64;98523.22;4856474;29;19916;-62
2023/01/01 16:00:28;;;;;;;;;;;;;;;12.66;67.85;98531.53;4825634;29;19923;-64
2023/01/01 16:02:53;;;;;;;;;;;;;;;12.59;67.94;98528.50;4825692;29;19940;-64
2023/01/01 16:05:22;;;;;;;;;;;;;;;12.51;68.27;98523.81;4855856;29;19924;-63
2023/01/01 16:07:55;;;;;;;;;;;;;;;12.45;68.47;98521.59;4843371;29;19920;-64
2023/01/01 16:10:20;;;;;;;;;;;;;;;12.41;69.07;98524.56;4858877;29;20372;-64
2023/01/01 16:12:46;;;;;;;;;;;;;;;12.35;69.25;98523.22;4859133;29;19916;-64
2023/01/01 16:15:13;;;;;;;;;;;;;;;12.29;69.18;98524.50;4859064;29;19920;-66
2023/01/01 16:17:38;;;;;;;;;;;;;;;12.24;69.69;98520.50;4858968;29;19938;-65
2023/01/01 16:20:03;;;;;;;;;;;;;;;12.17;69.68;98524.50;4825360;29;20241;-64
2023/01/01 16:22:28;;;;;;;;;;;;;;;12.11;69.80;98518.75;4848192;29;20353;-64
2023/01/01 16:24:54;;;;;;;;;;;;;;;12.06;69.92;98526.09;4854669;29;22177;-64
2023/01/01 16:27:19;;;;;;;;;;;;;;;11.99;69.99;98522.22;4868578;29;20363;-65
2023/01/01 16:29:44;;;;;;;;;;;;;;;11.97;70.77;98528.53;4858973;29;19965;-63
2023/01/01 16:32:13;;;;;;;;;;;;;;;11.94;70.84;98526.09;4845343;29;19917;-65
2023/01/01 16:34:38;;;;;;;;;;;;;;;11.92;70.97;98520.13;4828712;29;20007;-63
2023/01/01 16:37:04;;;;;;;;;;;;;;;11.90;70.56;98528.09;4859135;29;20444;-64
2023/01/01 16:39:29;;;;;;;;;;;;;;;11.86;70.51;98519.59;4865100;29;20349;-64
2023/01/01 16:41:54;;;;;;;;;;;;;;;11.85;70.57;98519.72;4855940;29;20351;-64
2023/01/01 16:44:20;;;;;;;;;;;;;;;11.82;71.18;98506.75;4847003;29;20397;-63
2023/01/01 16:46:45;;;;;;;;;;;;;;;11.80;71.66;98508.63;4861210;29;19959;-64
2023/01/01 16:49:10;;;;;;;;;;;;;;;11.78;70.72;98514.00;4867260;29;19990;-65
2023/01/01 16:51:35;;;;;;;;;;;;;;;11.77;71.38;98514.13;4855736;29;19920;-63
2023/01/01 16:54:01;;;;;;;;;;;;;;;11.75;71.18;98508.09;4845948;29;19933;-65
2023/01/01 16:56:26;;;;;;;;;;;;;;;11.73;71.49;98507.34;4863448;29;19920;-64
2023/01/01 16:58:53;;;;;;;;;;;;;;;11.71;72.01;98506.66;4864441;29;20360;-64
2023/01/01 17:01:18;;;;;;;;;;;;;;;11.78;75.17;98506.09;4857182;29;19923;-64
2023/01/01 17:03:43;;;;;;;;;;;;;;;11.72;72.41;98503.06;4842970;29;20022;-64
2023/01/01 17:06:08;;;;;;;;;;;;;;;11.64;72.70;98503.59;4860403;29;19921;-63
2023/01/01 17:08:34;;;;;;;;;;;;;;;11.58;72.35;98496.94;4840404;29;20023;-64
2023/01/01 17:11:06;;;;;;;;;;;;;;;11.49;72.71;98497.56;4867175;29;19936;-63
2023/01/01 17:13:31;;;;;;;;;;;;;;;11.42;72.43;98501.56;4846261;29;20377;-65
2023/01/01 17:15:56;;;;;;;;;;;;;;;11.40;72.77;98495.59;4862674;29;20007;-65
2023/01/01 17:18:22;;;;;;;;;;;;;;;11.37;73.10;98487.91;4869642;29;20308;-65
2023/01/01 17:20:47;;;;;;;;;;;;;;;11.35;73.44;98488.00;4846431;29;19924;-64
2023/01/01 17:23:12;;;;;;;;;;;;;;;11.34;73.45;98493.38;4844569;29;19920;-65
2023/01/01 17:25:38;;;;;;;;;;;;;;;11.31;73.28;98483.91;4846156;29;20011;-64
2023/01/01 17:28:03;;;;;;;;;;;;;;;11.32;73.26;98489.97;4857604;29;20010;-65
2023/01/01 17:30:28;;;;;;;;;;;;;;;11.29;73.32;98485.81;4861523;29;19995;-65
2023/01/01 17:32:53;;;;;;;;;;;;;;;11.29;73.31;98490.22;4842758;29;19916;-64
2023/01/01 17:35:19;;;;;;;;;;;;;;;11.27;73.85;98487.69;4843835;29;19934;-65
2023/01/01 17:37:44;;;;;;;;;;;;;;;11.27;73.87;98481.59;4852022;29;19963;-64
2023/01/01 17:40:09;;;;;;;;;;;;;;;11.26;73.48;98485.16;4863764;29;19924;-65
2023/01/01 17:42:34;;;;;;;;;;;;;;;11.25;74.04;98486.09;4836816;29;19925;-64
2023/01/01 17:45:00;;;;;;;;;;;;;;;11.21;73.93;98474.94;4860438;29;19920;-64
2023/01/01 17:47:25;;;;;;;;;;;;;;;11.21;74.11;98479.38;4861351;29;19916;-64
2023/01/01 17:49:50;;;;;;;;;;;;;;;11.19;74.34;98474.22;4860258;29;19974;-65
2023/01/01 17:52:15;;;;;;;;;;;;;;;11.16;74.63;98485.78;4848082;29;19955;-65
2023/01/01 17:54:41;;;;;;;;;;;;;;;11.14;73.58;98479.78;4844311;29;20293;-63
2023/01/01 17:57:06;;;;;;;;;;;;;;;11.11;73.80;98485.25;4844800;29;20269;-65
2023/01/01 17:59:31;;;;;;;;;;;;;;;11.10;74.43;98490.59;4843275;29;20304;-64
2023/01/01 18:01:57;;;;;;;;;;;;;;;11.07;74.10;98493.41;4860180;29;20335;-63
2023/01/01 18:04:22;;;;;;;;;;;;;;;11.02;74.01;98493.72;4855952;29;19920;-64
2023/01/01 18:06:47;;;;;;;;;;;;;;;11.01;74.12;98489.44;4844857;29;19960;-64
2023/01/01 18:09:12;;;;;;;;;;;;;;;10.98;74.47;98496.63;4862027;29;19968;-65
2023/01/01 18:11:38;;;;;;;;;;;;;;;10.95;74.21;98505.56;4831383;29;19992;-64
2023/01/01 18:14:03;;;;;;;;;;;;;;;10.93;75.12;98504.81;4840934;29;19917;-64
2023/01/01 18:16:29;;;;;;;;;;;;;;;10.88;74.83;98512.16;4831086;29;19920;-64
2023/01/01 18:18:55;;;;;;;;;;;;;;;10.81;74.90;98509.09;4842948;29;19928;-64
2023/01/01 18:21:22;;;;;;;;;;;;;;;10.78;74.95;98505.81;4862275;29;19927;-65
2023/01/01 18:23:50;;;;;;;;;;;;;;;10.72;75.72;98506.22;4849806;29;20019;-66
2023/01/01 18:26:16;;;;;;;;;;;;;;;10.69;75.49;98502.00;4845185;29;19920;-65
2023/01/01 18:28:41;;;;;;;;;;;;;;;10.66;75.31;98497.78;4861819;29;20385;-65
2023/01/01 18:31:07;;;;;;;;;;;;;;;10.63;75.60;98499.75;4859223;29;20404;-65
2023/01/01 18:33:32;;;;;;;;;;;;;;;10.60;76.26;98495.56;4839747;29;20376;-64
2023/01/01 18:36:01;;;;;;;;;;;;;;;10.57;76.34;98487.91;4857975;29;19928;-63
2023/01/01 18:38:26;;;;;;;;;;;;;;;10.53;76.31;98488.16;4850037;29;19927;-66
2023/01/01 18:40:56;;;;;;;;;;;;;;;10.43;75.61;98480.91;4834747;29;19917;-65
2023/01/01 18:43:23;;;;;;;;;;;;;;;10.38;76.61;98482.13;4841966;29;19959;-67
2023/01/01 18:45:48;;;;;;;;;;;;;;;10.36;76.36;98470.91;4838218;29;19928;-66
2023/01/01 18:48:14;;;;;;;;;;;;;;;10.31;76.27;98471.19;4829345;29;19968;-65
2023/01/01 18:50:39;;;;;;;;;;;;;;;10.29;76.53;98469.59;4844266;29;19924;-65
2023/01/01 18:53:07;;;;;;;;;;;;;;;10.29;76.67;98466.97;4858928;29;19924;-66
2023/01/01 18:55:32;;;;;;;;;;;;;;;10.29;77.35;98466.97;4862648;29;20301;-66
2023/01/01 18:57:59;;;;;;;;;;;;;;;10.28;77.27;98463.50;4853186;29;19937;-64
2023/01/01 19:00:25;;;;;;;;;;;;;;;10.29;77.12;98462.59;4837167;29;19917;-65
2023/01/01 19:02:54;;;;;;;;;;;;;;;10.28;77.40;98462.69;4831773;29;20011;-65
2023/01/01 19:05:25;;;;;;;;;;;;;;;10.27;77.01;98453.13;4856796;29;19924;-65
2023/01/01 19:08:21;;;;;;;;;;;;;;;10.26;77.60;98461.94;4846521;29;20041;-64
2023/01/01 19:10:46;;;;;;;;;;;;;;;10.21;77.98;98457.78;4769464;30;19928;-64
2023/01/01 19:13:13;;;;;;;;;;;;;;;10.20;77.60;98453.47;4785464;30;19921;-64
2023/01/01 19:15:39;;;;;;;;;;;;;;;10.18;77.75;98452.72;4774659;29;19921;-66
2023/01/01 19:18:10;;;;;;;;;;;;;;;10.15;77.78;98442.47;4789950;29;19965;-65
2023/01/01 19:20:35;;;;;;;;;;;;;;;10.12;78.35;98445.28;4768523;30;20556;-66
2023/01/01 19:23:01;;;;;;;;;;;;;;;10.12;78.39;98447.91;4769240;30;20009;-63
2023/01/01 19:25:35;;;;;;;;;;;;;;;10.09;78.87;98450.69;4767664;30;20028;-65
2023/01/01 19:28:21;;;;;;;;;;;;;;;10.07;79.48;98436.84;4779598;29;19922;-65
2023/01/01 19:30:46;;;;;;;;;;;;;;;10.05;78.59;98437.88;4773255;30;20345;-65
2023/01/01 19:33:12;;;;;;;;;;;;;;;10.02;79.46;98433.69;4784554;30;19922;-65
2023/01/01 19:35:37;;;;;;;;;;;;;;;10.00;79.32;98432.94;4785370;30;19924;-65
2023/01/01 19:38:02;;;;;;;;;;;;;;;9.99;79.22;98434.72;4787555;29;19932;-64
2023/01/01 19:40:29;;;;;;;;;;;;;;;9.97;79.26;98433.13;4784574;30;20420;-64
2023/01/01 19:42:55;;;;;;;;;;;;;;;9.95;79.99;98433.22;4785187;30;20338;-65
2023/01/01 19:45:20;;;;;;;;;;;;;;;9.94;79.77;98430.69;4769829;30;20393;-64
2023/01/01 19:47:45;;;;;;;;;;;;;;;9.93;80.66;98429.00;4825867;29;19923;-64
2023/01/01 19:50:10;;;;;;;;;;;;;;;9.93;80.92;98431.63;4844111;29;20388;-65
2023/01/01 19:52:36;;;;;;;;;;;;;;;9.92;80.73;98427.34;4838521;29;19977;-65
2023/01/01 19:55:01;;;;;;;;;;;;;;;9.87;80.89;98419.75;4828091;29;19921;-64
2023/01/01 19:57:26;;;;;;;;;;;;;;;9.87;81.12;98419.75;4855631;29;20353;-64
2023/01/01 19:59:51;;;;;;;;;;;;;;;9.85;80.86;98421.63;4848910;29;20372;-65
2023/01/01 20:02:16;;;;;;;;;;;;;;;9.85;81.15;98418.19;4827630;29;20363;-65
2023/01/01 20:04:42;;;;;;;;;;;;;;;9.82;81.30;98421.81;4845591;29;20357;-65
2023/01/01 20:07:07;;;;;;;;;;;;;;;9.83;81.72;98417.41;4843588;29;20212;-65
2023/01/01 20:09:32;;;;;;;;;;;;;;;9.82;82.09;98415.75;4861926;29;19974;-66
2023/01/01 20:11:58;;;;;;;;;;;;;;;9.83;80.79;98417.41;4840033;29;19964;-65
2023/01/01 20:14:23;;;;;;;;;;;;;;;9.82;81.52;98411.34;4838746;29;19916;-64
2023/01/01 20:16:49;;;;;;;;;;;;;;;9.84;81.56;98413.84;4837205;29;20384;-65
2023/01/01 20:19:14;;;;;;;;;;;;;;;9.85;81.85;98412.94;4860373;29;20412;-63
